sensor_id;sensor_type;location;lat;lon;timestamp;P1;durP1;ratioP1;P2;durP2;ratioP2
84021;SDS011;74108;48.636;9.492;2024-01-27T00:00:23;7.10;;;3.08;;
84021;SDS011;74108;48.636;9.492;2024-01-27T00:02:49;6.70;;;2.90;;
84021;SDS011;74108;48.636;9.492;2024-01-27T00:05:14;7.45;;;3.20;;
84021;SDS011;74108;48.636;9.492;2024-01-27T00:07:40;5.63;;;3.00;;
84021;SDS011;74108;48.636;9.492;2024-01-27T00:10:05;8.50;;;3.22;;
84021;SDS011;74108;48.636;9.492;2024-01-27T00:12:31;6.00;;;3.08;;
84021;SDS011;74108;48.636;9.492;2024-01-27T00:14:57;6.55;;;3.15;;
84021;SDS011;74108;48.636;9.492;2024-01-27T00:17:22;6.70;;;3.10;;
84021;SDS011;74108;48.636;9.492;2024-01-27T00:19:53;5.25;;;3.13;;
84021;SDS011;74108;48.636;9.492;2024-01-27T00:22:20;6.18;;;3.08;;
84021;SDS011;74108;48.636;9.492;2024-01-27T00:24:46;6.40;;;3.00;;
84021;SDS011;74108;48.636;9.492;2024-01-27T00:27:11;5.78;;;2.85;;
84021;SDS011;74108;48.636;9.492;2024-01-27T00:29:37;7.22;;;2.97;;
84021;SDS011;74108;48.636;9.492;2024-01-27T00:32:02;5.93;;;3.13;;
84021;SDS011;74108;48.636;9.492;2024-01-27T00:34:28;6.22;;;3.00;;
84021;SDS011;74108;48.636;9.492;2024-01-27T00:36:53;4.22;;;2.80;;
84021;SDS011;74108;48.636;9.492;2024-01-27T00:39:19;5.78;;;2.90;;
84021;SDS011;74108;48.636;9.492;2024-01-27T00:41:45;8.27;;;2.83;;
84021;SDS011;74108;48.636;9.492;2024-01-27T00:44:10;6.78;;;2.67;;
84021;SDS011;74108;48.636;9.492;2024-01-27T00:46:39;4.85;;;2.40;;
84021;SDS011;74108;48.636;9.492;2024-01-27T00:49:04;5.03;;;2.85;;
84021;SDS011;74108;48.636;9.492;2024-01-27T00:51:31;5.93;;;2.83;;
84021;SDS011;74108;48.636;9.492;2024-01-27T00:53:56;6.85;;;2.92;;
84021;SDS011;74108;48.636;9.492;2024-01-27T00:56:21;7.25;;;2.50;;
84021;SDS011;74108;48.636;9.492;2024-01-27T00:58:47;5.38;;;2.78;;
84021;SDS011;74108;48.636;9.492;2024-01-27T01:01:12;5.05;;;2.50;;
84021;SDS011;74108;48.636;9.492;2024-01-27T01:03:38;5.90;;;2.35;;
84021;SDS011;74108;48.636;9.492;2024-01-27T01:06:03;4.97;;;2.50;;
84021;SDS011;74108;48.636;9.492;2024-01-27T01:08:32;5.22;;;2.60;;
84021;SDS011;74108;48.636;9.492;2024-01-27T01:10:57;6.70;;;2.60;;
84021;SDS011;74108;48.636;9.492;2024-01-27T01:13:23;4.30;;;2.42;;
84021;SDS011;74108;48.636;9.492;2024-01-27T01:15:49;6.47;;;2.78;;
84021;SDS011;74108;48.636;9.492;2024-01-27T01:18:14;6.40;;;2.60;;
84021;SDS011;74108;48.636;9.492;2024-01-27T01:20:39;5.85;;;2.80;;
84021;SDS011;74108;48.636;9.492;2024-01-27T01:23:05;5.95;;;2.90;;
84021;SDS011;74108;48.636;9.492;2024-01-27T01:25:54;5.07;;;2.58;;
84021;SDS011;74108;48.636;9.492;2024-01-27T01:28:23;7.63;;;2.47;;
84021;SDS011;74108;48.636;9.492;2024-01-27T01:30:52;5.05;;;2.55;;
84021;SDS011;74108;48.636;9.492;2024-01-27T01:33:33;5.68;;;2.30;;
84021;SDS011;74108;48.636;9.492;2024-01-27T01:35:58;6.55;;;2.30;;
84021;SDS011;74108;48.636;9.492;2024-01-27T01:38:27;6.38;;;2.50;;
84021;SDS011;74108;48.636;9.492;2024-01-27T01:41:05;5.38;;;2.50;;
84021;SDS011;74108;48.636;9.492;2024-01-27T01:43:30;7.22;;;2.63;;
84021;SDS011;74108;48.636;9.492;2024-01-27T01:45:56;5.43;;;2.20;;
84021;SDS011;74108;48.636;9.492;2024-01-27T01:48:22;5.47;;;2.30;;
84021;SDS011;74108;48.636;9.492;2024-01-27T01:50:48;4.60;;;2.33;;
84021;SDS011;74108;48.636;9.492;2024-01-27T01:53:58;5.28;;;2.38;;
84021;SDS011;74108;48.636;9.492;2024-01-27T01:56:27;5.00;;;2.17;;
84021;SDS011;74108;48.636;9.492;2024-01-27T01:58:54;4.75;;;2.20;;
84021;SDS011;74108;48.636;9.492;2024-01-27T02:01:31;5.20;;;2.25;;
84021;SDS011;74108;48.636;9.492;2024-01-27T02:04:04;6.45;;;2.40;;
84021;SDS011;74108;48.636;9.492;2024-01-27T02:06:48;5.15;;;2.00;;
84021;SDS011;74108;48.636;9.492;2024-01-27T02:09:16;4.50;;;2.30;;
84021;SDS011;74108;48.636;9.492;2024-01-27T02:11:45;6.95;;;2.08;;
84021;SDS011;74108;48.636;9.492;2024-01-27T02:14:10;7.47;;;2.53;;
84021;SDS011;74108;48.636;9.492;2024-01-27T02:17:23;4.80;;;2.25;;
84021;SDS011;74108;48.636;9.492;2024-01-27T02:19:58;6.13;;;2.20;;
84021;SDS011;74108;48.636;9.492;2024-01-27T02:22:28;3.00;;;1.98;;
84021;SDS011;74108;48.636;9.492;2024-01-27T02:25:35;3.78;;;2.20;;
84021;SDS011;74108;48.636;9.492;2024-01-27T02:28:04;5.18;;;2.20;;
84021;SDS011;74108;48.636;9.492;2024-01-27T02:30:30;2.92;;;1.80;;
84021;SDS011;74108;48.636;9.492;2024-01-27T02:33:13;6.10;;;2.67;;
84021;SDS011;74108;48.636;9.492;2024-01-27T02:38:33;6.50;;;2.50;;
84021;SDS011;74108;48.636;9.492;2024-01-27T02:41:02;4.97;;;2.10;;
84021;SDS011;74108;48.636;9.492;2024-01-27T02:43:51;3.97;;;2.10;;
84021;SDS011;74108;48.636;9.492;2024-01-27T02:50:11;4.97;;;2.15;;
84021;SDS011;74108;48.636;9.492;2024-01-27T02:55:24;4.70;;;1.85;;
84021;SDS011;74108;48.636;9.492;2024-01-27T02:59:13;4.13;;;2.22;;
84021;SDS011;74108;48.636;9.492;2024-01-27T03:01:41;9.20;;;2.22;;
84021;SDS011;74108;48.636;9.492;2024-01-27T03:11:13;4.93;;;2.05;;
84021;SDS011;74108;48.636;9.492;2024-01-27T03:14:35;5.28;;;2.30;;
84021;SDS011;74108;48.636;9.492;2024-01-27T03:17:05;3.85;;;2.30;;
84021;SDS011;74108;48.636;9.492;2024-01-27T03:19:32;5.32;;;2.17;;
84021;SDS011;74108;48.636;9.492;2024-01-27T03:21:57;4.32;;;2.03;;
84021;SDS011;74108;48.636;9.492;2024-01-27T03:24:23;4.47;;;1.90;;
84021;SDS011;74108;48.636;9.492;2024-01-27T03:26:48;6.38;;;1.98;;
84021;SDS011;74108;48.636;9.492;2024-01-27T03:29:13;4.32;;;2.40;;
84021;SDS011;74108;48.636;9.492;2024-01-27T03:31:39;5.30;;;2.05;;
84021;SDS011;74108;48.636;9.492;2024-01-27T03:34:04;5.50;;;2.38;;
84021;SDS011;74108;48.636;9.492;2024-01-27T03:36:30;5.43;;;2.30;;
84021;SDS011;74108;48.636;9.492;2024-01-27T03:38:56;5.75;;;2.10;;
84021;SDS011;74108;48.636;9.492;2024-01-27T03:41:23;3.92;;;2.13;;
84021;SDS011;74108;48.636;9.492;2024-01-27T03:43:48;5.70;;;2.17;;
84021;SDS011;74108;48.636;9.492;2024-01-27T03:46:13;7.95;;;2.20;;
84021;SDS011;74108;48.636;9.492;2024-01-27T03:48:39;3.70;;;2.20;;
84021;SDS011;74108;48.636;9.492;2024-01-27T03:51:04;6.85;;;2.20;;
84021;SDS011;74108;48.636;9.492;2024-01-27T03:53:32;4.25;;;1.80;;
84021;SDS011;74108;48.636;9.492;2024-01-27T03:55:57;5.60;;;2.28;;
84021;SDS011;74108;48.636;9.492;2024-01-27T03:58:29;6.53;;;2.25;;
84021;SDS011;74108;48.636;9.492;2024-01-27T04:00:56;4.60;;;2.10;;
84021;SDS011;74108;48.636;9.492;2024-01-27T04:03:22;4.20;;;2.30;;
84021;SDS011;74108;48.636;9.492;2024-01-27T04:05:47;3.47;;;1.77;;
84021;SDS011;74108;48.636;9.492;2024-01-27T04:08:13;4.88;;;2.03;;
84021;SDS011;74108;48.636;9.492;2024-01-27T04:10:38;7.75;;;2.20;;
84021;SDS011;74108;48.636;9.492;2024-01-27T04:13:04;4.45;;;2.40;;
84021;SDS011;74108;48.636;9.492;2024-01-27T04:15:29;6.03;;;2.55;;
84021;SDS011;74108;48.636;9.492;2024-01-27T04:17:55;4.15;;;2.20;;
84021;SDS011;74108;48.636;9.492;2024-01-27T04:20:22;4.93;;;2.28;;
84021;SDS011;74108;48.636;9.492;2024-01-27T04:22:47;3.45;;;1.90;;
84021;SDS011;74108;48.636;9.492;2024-01-27T04:25:13;4.90;;;2.25;;
84021;SDS011;74108;48.636;9.492;2024-01-27T04:27:39;3.95;;;1.98;;
84021;SDS011;74108;48.636;9.492;2024-01-27T04:30:06;4.03;;;1.80;;
84021;SDS011;74108;48.636;9.492;2024-01-27T04:32:33;4.97;;;2.17;;
84021;SDS011;74108;48.636;9.492;2024-01-27T04:34:58;4.47;;;2.10;;
84021;SDS011;74108;48.636;9.492;2024-01-27T04:37:23;5.10;;;2.17;;
84021;SDS011;74108;48.636;9.492;2024-01-27T04:39:49;4.22;;;2.08;;
84021;SDS011;74108;48.636;9.492;2024-01-27T04:42:15;3.92;;;2.22;;
84021;SDS011;74108;48.636;9.492;2024-01-27T04:44:41;3.83;;;2.20;;
84021;SDS011;74108;48.636;9.492;2024-01-27T04:47:07;4.82;;;2.10;;
84021;SDS011;74108;48.636;9.492;2024-01-27T04:49:32;3.97;;;2.08;;
84021;SDS011;74108;48.636;9.492;2024-01-27T04:51:57;3.97;;;2.20;;
84021;SDS011;74108;48.636;9.492;2024-01-27T04:54:23;4.78;;;2.15;;
84021;SDS011;74108;48.636;9.492;2024-01-27T04:56:48;5.20;;;2.30;;
84021;SDS011;74108;48.636;9.492;2024-01-27T04:59:15;4.15;;;2.45;;
84021;SDS011;74108;48.636;9.492;2024-01-27T05:01:43;4.85;;;2.33;;
84021;SDS011;74108;48.636;9.492;2024-01-27T05:04:09;3.90;;;2.15;;
84021;SDS011;74108;48.636;9.492;2024-01-27T05:06:35;3.75;;;2.10;;
84021;SDS011;74108;48.636;9.492;2024-01-27T05:09:00;4.72;;;2.30;;
84021;SDS011;74108;48.636;9.492;2024-01-27T05:11:29;5.13;;;2.13;;
84021;SDS011;74108;48.636;9.492;2024-01-27T05:13:56;4.25;;;2.05;;
84021;SDS011;74108;48.636;9.492;2024-01-27T05:16:21;4.13;;;2.08;;
84021;SDS011;74108;48.636;9.492;2024-01-27T05:18:47;4.82;;;2.20;;
84021;SDS011;74108;48.636;9.492;2024-01-27T05:21:24;4.97;;;2.20;;
84021;SDS011;74108;48.636;9.492;2024-01-27T05:24:09;4.20;;;2.35;;
84021;SDS011;74108;48.636;9.492;2024-01-27T05:29:36;5.47;;;2.20;;
84021;SDS011;74108;48.636;9.492;2024-01-27T05:32:25;6.07;;;3.00;;
84021;SDS011;74108;48.636;9.492;2024-01-27T05:34:52;7.35;;;2.38;;
84021;SDS011;74108;48.636;9.492;2024-01-27T05:37:56;6.13;;;2.63;;
84021;SDS011;74108;48.636;9.492;2024-01-27T05:41:29;5.05;;;2.42;;
84021;SDS011;74108;48.636;9.492;2024-01-27T05:44:35;6.78;;;2.97;;
84021;SDS011;74108;48.636;9.492;2024-01-27T05:54:18;5.63;;;2.63;;
84021;SDS011;74108;48.636;9.492;2024-01-27T05:56:58;7.18;;;2.50;;
84021;SDS011;74108;48.636;9.492;2024-01-27T05:59:23;9.70;;;2.90;;
84021;SDS011;74108;48.636;9.492;2024-01-27T06:02:20;4.78;;;2.60;;
84021;SDS011;74108;48.636;9.492;2024-01-27T06:05:07;6.10;;;2.78;;
84021;SDS011;74108;48.636;9.492;2024-01-27T06:07:53;4.82;;;2.60;;
84021;SDS011;74108;48.636;9.492;2024-01-27T06:10:22;4.82;;;2.58;;
84021;SDS011;74108;48.636;9.492;2024-01-27T06:12:50;5.70;;;2.70;;
84021;SDS011;74108;48.636;9.492;2024-01-27T06:15:29;4.50;;;2.47;;
84021;SDS011;74108;48.636;9.492;2024-01-27T06:17:58;5.90;;;2.90;;
84021;SDS011;74108;48.636;9.492;2024-01-27T06:20:24;5.30;;;2.70;;
84021;SDS011;74108;48.636;9.492;2024-01-27T06:22:59;7.13;;;2.60;;
84021;SDS011;74108;48.636;9.492;2024-01-27T06:25:24;7.45;;;2.75;;
84021;SDS011;74108;48.636;9.492;2024-01-27T06:27:53;6.93;;;2.47;;
84021;SDS011;74108;48.636;9.492;2024-01-27T06:30:18;10.05;;;3.17;;
84021;SDS011;74108;48.636;9.492;2024-01-27T06:32:44;7.63;;;2.88;;
84021;SDS011;74108;48.636;9.492;2024-01-27T06:37:38;4.50;;;2.92;;
84021;SDS011;74108;48.636;9.492;2024-01-27T06:40:03;5.88;;;2.85;;
84021;SDS011;74108;48.636;9.492;2024-01-27T06:42:29;8.30;;;3.10;;
84021;SDS011;74108;48.636;9.492;2024-01-27T06:44:54;14.98;;;4.22;;
84021;SDS011;74108;48.636;9.492;2024-01-27T06:47:19;8.13;;;3.10;;
84021;SDS011;74108;48.636;9.492;2024-01-27T06:49:45;6.45;;;3.13;;
84021;SDS011;74108;48.636;9.492;2024-01-27T06:52:10;10.77;;;3.40;;
84021;SDS011;74108;48.636;9.492;2024-01-27T06:54:37;7.88;;;3.67;;
84021;SDS011;74108;48.636;9.492;2024-01-27T06:57:06;6.75;;;3.35;;
84021;SDS011;74108;48.636;9.492;2024-01-27T06:59:31;8.00;;;3.13;;
84021;SDS011;74108;48.636;9.492;2024-01-27T07:01:57;7.60;;;3.28;;
84021;SDS011;74108;48.636;9.492;2024-01-27T07:04:23;5.72;;;2.63;;
84021;SDS011;74108;48.636;9.492;2024-01-27T07:06:48;7.25;;;3.15;;
84021;SDS011;74108;48.636;9.492;2024-01-27T07:09:13;11.43;;;3.83;;
84021;SDS011;74108;48.636;9.492;2024-01-27T07:11:39;9.50;;;3.55;;
84021;SDS011;74108;48.636;9.492;2024-01-27T07:14:04;8.98;;;3.45;;
84021;SDS011;74108;48.636;9.492;2024-01-27T07:16:31;8.80;;;3.95;;
84021;SDS011;74108;48.636;9.492;2024-01-27T07:18:57;7.45;;;3.58;;
84021;SDS011;74108;48.636;9.492;2024-01-27T07:21:25;6.60;;;3.47;;
84021;SDS011;74108;48.636;9.492;2024-01-27T07:23:52;10.43;;;3.88;;
84021;SDS011;74108;48.636;9.492;2024-01-27T07:26:21;5.35;;;3.00;;
84021;SDS011;74108;48.636;9.492;2024-01-27T07:28:54;8.88;;;3.40;;
84021;SDS011;74108;48.636;9.492;2024-01-27T07:31:21;7.25;;;3.17;;
84021;SDS011;74108;48.636;9.492;2024-01-27T07:33:47;7.30;;;2.90;;
84021;SDS011;74108;48.636;9.492;2024-01-27T07:36:12;6.57;;;3.00;;
84021;SDS011;74108;48.636;9.492;2024-01-27T07:38:37;11.15;;;3.13;;
84021;SDS011;74108;48.636;9.492;2024-01-27T07:41:03;5.43;;;2.88;;
84021;SDS011;74108;48.636;9.492;2024-01-27T07:43:28;5.65;;;2.80;;
84021;SDS011;74108;48.636;9.492;2024-01-27T07:45:53;6.75;;;2.75;;
84021;SDS011;74108;48.636;9.492;2024-01-27T07:48:19;6.95;;;2.90;;
84021;SDS011;74108;48.636;9.492;2024-01-27T07:50:45;7.38;;;2.88;;
84021;SDS011;74108;48.636;9.492;2024-01-27T07:55:38;5.32;;;2.90;;
84021;SDS011;74108;48.636;9.492;2024-01-27T07:58:04;7.20;;;3.25;;
84021;SDS011;74108;48.636;9.492;2024-01-27T08:00:30;6.03;;;3.33;;
84021;SDS011;74108;48.636;9.492;2024-01-27T08:02:58;7.65;;;3.17;;
84021;SDS011;74108;48.636;9.492;2024-01-27T08:05:23;6.05;;;2.58;;
84021;SDS011;74108;48.636;9.492;2024-01-27T08:07:48;6.05;;;3.10;;
84021;SDS011;74108;48.636;9.492;2024-01-27T08:10:14;7.45;;;3.13;;
84021;SDS011;74108;48.636;9.492;2024-01-27T08:12:40;4.85;;;2.83;;
84021;SDS011;74108;48.636;9.492;2024-01-27T08:15:06;5.97;;;3.00;;
84021;SDS011;74108;48.636;9.492;2024-01-27T08:17:32;7.13;;;3.47;;
84021;SDS011;74108;48.636;9.492;2024-01-27T08:19:57;6.15;;;3.72;;
84021;SDS011;74108;48.636;9.492;2024-01-27T08:22:23;8.40;;;3.50;;
84021;SDS011;74108;48.636;9.492;2024-01-27T08:24:48;6.65;;;3.22;;
84021;SDS011;74108;48.636;9.492;2024-01-27T08:27:13;8.07;;;3.00;;
84021;SDS011;74108;48.636;9.492;2024-01-27T08:29:39;6.82;;;3.58;;
84021;SDS011;74108;48.636;9.492;2024-01-27T08:32:04;6.28;;;3.40;;
84021;SDS011;74108;48.636;9.492;2024-01-27T08:34:30;5.35;;;3.38;;
84021;SDS011;74108;48.636;9.492;2024-01-27T08:37:00;5.97;;;3.25;;
84021;SDS011;74108;48.636;9.492;2024-01-27T08:39:27;6.75;;;3.42;;
84021;SDS011;74108;48.636;9.492;2024-01-27T08:41:52;9.63;;;4.05;;
84021;SDS011;74108;48.636;9.492;2024-01-27T08:44:18;7.03;;;3.20;;
84021;SDS011;74108;48.636;9.492;2024-01-27T08:46:43;6.03;;;3.30;;
84021;SDS011;74108;48.636;9.492;2024-01-27T08:49:09;8.13;;;3.97;;
84021;SDS011;74108;48.636;9.492;2024-01-27T08:51:34;7.57;;;3.10;;
84021;SDS011;74108;48.636;9.492;2024-01-27T08:54:00;6.45;;;3.40;;
84021;SDS011;74108;48.636;9.492;2024-01-27T08:56:25;7.00;;;3.45;;
84021;SDS011;74108;48.636;9.492;2024-01-27T08:58:51;6.85;;;3.78;;
84021;SDS011;74108;48.636;9.492;2024-01-27T09:01:17;8.93;;;3.75;;
84021;SDS011;74108;48.636;9.492;2024-01-27T09:03:43;8.05;;;3.78;;
84021;SDS011;74108;48.636;9.492;2024-01-27T09:06:08;7.43;;;3.47;;
84021;SDS011;74108;48.636;9.492;2024-01-27T09:08:34;7.47;;;4.45;;
84021;SDS011;74108;48.636;9.492;2024-01-27T09:11:01;10.02;;;5.45;;
84021;SDS011;74108;48.636;9.492;2024-01-27T09:13:27;8.35;;;4.57;;
84021;SDS011;74108;48.636;9.492;2024-01-27T09:15:52;7.30;;;4.18;;
84021;SDS011;74108;48.636;9.492;2024-01-27T09:18:17;8.10;;;3.78;;
84021;SDS011;74108;48.636;9.492;2024-01-27T09:20:43;5.57;;;3.30;;
84021;SDS011;74108;48.636;9.492;2024-01-27T09:23:08;8.73;;;4.00;;
84021;SDS011;74108;48.636;9.492;2024-01-27T09:25:33;9.07;;;4.25;;
84021;SDS011;74108;48.636;9.492;2024-01-27T09:27:59;8.00;;;4.32;;
84021;SDS011;74108;48.636;9.492;2024-01-27T09:30:28;8.70;;;4.25;;
84021;SDS011;74108;48.636;9.492;2024-01-27T09:32:53;10.55;;;4.45;;
84021;SDS011;74108;48.636;9.492;2024-01-27T09:35:19;7.55;;;4.20;;
84021;SDS011;74108;48.636;9.492;2024-01-27T09:37:45;8.13;;;4.03;;
84021;SDS011;74108;48.636;9.492;2024-01-27T09:40:11;8.45;;;4.28;;
84021;SDS011;74108;48.636;9.492;2024-01-27T09:42:37;9.70;;;3.53;;
84021;SDS011;74108;48.636;9.492;2024-01-27T09:45:04;7.05;;;4.00;;
84021;SDS011;74108;48.636;9.492;2024-01-27T09:47:30;6.68;;;4.20;;
84021;SDS011;74108;48.636;9.492;2024-01-27T09:49:55;7.30;;;3.53;;
84021;SDS011;74108;48.636;9.492;2024-01-27T09:52:21;8.27;;;3.67;;
84021;SDS011;74108;48.636;9.492;2024-01-27T09:54:47;8.10;;;3.67;;
84021;SDS011;74108;48.636;9.492;2024-01-27T09:57:12;7.88;;;4.07;;
84021;SDS011;74108;48.636;9.492;2024-01-27T09:59:40;10.13;;;4.65;;
84021;SDS011;74108;48.636;9.492;2024-01-27T10:02:10;10.90;;;4.45;;
84021;SDS011;74108;48.636;9.492;2024-01-27T10:04:40;9.20;;;4.70;;
84021;SDS011;74108;48.636;9.492;2024-01-27T10:07:07;8.85;;;4.03;;
84021;SDS011;74108;48.636;9.492;2024-01-27T10:09:33;9.05;;;3.90;;
84021;SDS011;74108;48.636;9.492;2024-01-27T10:11:58;7.32;;;3.72;;
84021;SDS011;74108;48.636;9.492;2024-01-27T10:14:37;8.60;;;4.32;;
84021;SDS011;74108;48.636;9.492;2024-01-27T10:17:05;9.20;;;4.20;;
84021;SDS011;74108;48.636;9.492;2024-01-27T10:19:34;8.48;;;4.30;;
84021;SDS011;74108;48.636;9.492;2024-01-27T10:22:00;7.60;;;4.40;;
84021;SDS011;74108;48.636;9.492;2024-01-27T10:24:31;9.98;;;5.20;;
84021;SDS011;74108;48.636;9.492;2024-01-27T10:29:32;9.05;;;5.03;;
84021;SDS011;74108;48.636;9.492;2024-01-27T10:32:07;11.65;;;4.97;;
84021;SDS011;74108;48.636;9.492;2024-01-27T10:34:34;9.73;;;5.90;;
84021;SDS011;74108;48.636;9.492;2024-01-27T10:37:00;11.38;;;5.25;;
84021;SDS011;74108;48.636;9.492;2024-01-27T10:39:25;10.27;;;4.68;;
84021;SDS011;74108;48.636;9.492;2024-01-27T10:41:50;11.38;;;5.57;;
84021;SDS011;74108;48.636;9.492;2024-01-27T10:44:18;9.55;;;4.65;;
84021;SDS011;74108;48.636;9.492;2024-01-27T10:46:45;9.23;;;4.57;;
84021;SDS011;74108;48.636;9.492;2024-01-27T10:49:17;7.35;;;4.45;;
84021;SDS011;74108;48.636;9.492;2024-01-27T10:51:44;8.10;;;4.57;;
84021;SDS011;74108;48.636;9.492;2024-01-27T10:54:14;9.27;;;4.88;;
84021;SDS011;74108;48.636;9.492;2024-01-27T10:56:43;10.27;;;5.25;;
84021;SDS011;74108;48.636;9.492;2024-01-27T10:59:10;6.97;;;4.22;;
84021;SDS011;74108;48.636;9.492;2024-01-27T11:01:38;8.32;;;4.28;;
84021;SDS011;74108;48.636;9.492;2024-01-27T11:04:06;8.63;;;4.63;;
84021;SDS011;74108;48.636;9.492;2024-01-27T11:06:35;8.35;;;4.47;;
84021;SDS011;74108;48.636;9.492;2024-01-27T11:09:02;10.00;;;4.85;;
84021;SDS011;74108;48.636;9.492;2024-01-27T11:11:30;9.20;;;4.53;;
84021;SDS011;74108;48.636;9.492;2024-01-27T11:13:57;11.23;;;5.03;;
84021;SDS011;74108;48.636;9.492;2024-01-27T11:16:23;10.88;;;4.47;;
84021;SDS011;74108;48.636;9.492;2024-01-27T11:18:49;9.00;;;4.00;;
84021;SDS011;74108;48.636;9.492;2024-01-27T11:21:14;7.13;;;4.13;;
84021;SDS011;74108;48.636;9.492;2024-01-27T11:23:41;7.35;;;3.80;;
84021;SDS011;74108;48.636;9.492;2024-01-27T11:26:07;6.65;;;3.83;;
84021;SDS011;74108;48.636;9.492;2024-01-27T11:28:34;6.95;;;3.65;;
84021;SDS011;74108;48.636;9.492;2024-01-27T11:31:07;8.23;;;3.67;;
84021;SDS011;74108;48.636;9.492;2024-01-27T11:33:33;10.25;;;3.75;;
84021;SDS011;74108;48.636;9.492;2024-01-27T11:36:07;7.00;;;3.42;;
84021;SDS011;74108;48.636;9.492;2024-01-27T11:38:33;11.05;;;3.75;;
84021;SDS011;74108;48.636;9.492;2024-01-27T11:41:01;7.05;;;3.10;;
84021;SDS011;74108;48.636;9.492;2024-01-27T11:43:27;8.48;;;3.13;;
84021;SDS011;74108;48.636;9.492;2024-01-27T11:45:56;7.07;;;3.40;;
84021;SDS011;74108;48.636;9.492;2024-01-27T11:48:23;6.20;;;3.50;;
84021;SDS011;74108;48.636;9.492;2024-01-27T11:50:48;7.97;;;3.30;;
84021;SDS011;74108;48.636;9.492;2024-01-27T11:53:13;7.88;;;3.33;;
84021;SDS011;74108;48.636;9.492;2024-01-27T11:55:39;7.78;;;3.40;;
84021;SDS011;74108;48.636;9.492;2024-01-27T11:58:05;5.65;;;3.05;;
84021;SDS011;74108;48.636;9.492;2024-01-27T12:00:31;8.35;;;3.00;;
84021;SDS011;74108;48.636;9.492;2024-01-27T12:02:56;7.75;;;2.45;;
84021;SDS011;74108;48.636;9.492;2024-01-27T12:05:22;5.60;;;3.00;;
84021;SDS011;74108;48.636;9.492;2024-01-27T12:07:47;7.85;;;2.80;;
84021;SDS011;74108;48.636;9.492;2024-01-27T12:10:13;7.90;;;2.90;;
84021;SDS011;74108;48.636;9.492;2024-01-27T12:12:39;6.90;;;2.88;;
84021;SDS011;74108;48.636;9.492;2024-01-27T12:15:04;6.75;;;2.70;;
84021;SDS011;74108;48.636;9.492;2024-01-27T12:17:30;7.20;;;2.28;;
84021;SDS011;74108;48.636;9.492;2024-01-27T12:19:55;8.07;;;2.50;;
84021;SDS011;74108;48.636;9.492;2024-01-27T12:22:28;7.45;;;2.58;;
84021;SDS011;74108;48.636;9.492;2024-01-27T12:24:55;3.67;;;2.35;;
84021;SDS011;74108;48.636;9.492;2024-01-27T12:27:32;4.72;;;2.63;;
84021;SDS011;74108;48.636;9.492;2024-01-27T12:29:57;5.20;;;2.60;;
84021;SDS011;74108;48.636;9.492;2024-01-27T12:32:23;4.25;;;2.28;;
84021;SDS011;74108;48.636;9.492;2024-01-27T12:34:49;5.43;;;2.55;;
84021;SDS011;74108;48.636;9.492;2024-01-27T12:37:15;11.07;;;2.83;;
84021;SDS011;74108;48.636;9.492;2024-01-27T12:39:44;7.18;;;2.60;;
84021;SDS011;74108;48.636;9.492;2024-01-27T12:42:10;6.60;;;2.30;;
84021;SDS011;74108;48.636;9.492;2024-01-27T12:44:36;4.82;;;2.50;;
84021;SDS011;74108;48.636;9.492;2024-01-27T12:47:01;7.90;;;2.65;;
84021;SDS011;74108;48.636;9.492;2024-01-27T12:49:27;6.50;;;2.58;;
84021;SDS011;74108;48.636;9.492;2024-01-27T12:51:52;7.18;;;2.70;;
84021;SDS011;74108;48.636;9.492;2024-01-27T12:54:17;4.18;;;2.30;;
84021;SDS011;74108;48.636;9.492;2024-01-27T12:56:44;5.90;;;2.38;;
84021;SDS011;74108;48.636;9.492;2024-01-27T12:59:10;5.22;;;2.40;;
84021;SDS011;74108;48.636;9.492;2024-01-27T13:01:35;5.68;;;2.47;;
84021;SDS011;74108;48.636;9.492;2024-01-27T13:04:01;4.78;;;2.13;;
84021;SDS011;74108;48.636;9.492;2024-01-27T13:06:27;6.95;;;2.50;;
84021;SDS011;74108;48.636;9.492;2024-01-27T13:08:52;7.13;;;2.45;;
84021;SDS011;74108;48.636;9.492;2024-01-27T13:11:19;5.78;;;2.90;;
84021;SDS011;74108;48.636;9.492;2024-01-27T13:13:45;5.30;;;2.70;;
84021;SDS011;74108;48.636;9.492;2024-01-27T13:16:11;4.65;;;2.60;;
84021;SDS011;74108;48.636;9.492;2024-01-27T13:18:36;7.47;;;2.72;;
84021;SDS011;74108;48.636;9.492;2024-01-27T13:21:02;5.38;;;2.67;;
84021;SDS011;74108;48.636;9.492;2024-01-27T13:23:29;7.15;;;2.47;;
84021;SDS011;74108;48.636;9.492;2024-01-27T13:25:55;5.80;;;3.05;;
84021;SDS011;74108;48.636;9.492;2024-01-27T13:28:20;5.13;;;2.38;;
84021;SDS011;74108;48.636;9.492;2024-01-27T13:30:45;6.53;;;2.60;;
84021;SDS011;74108;48.636;9.492;2024-01-27T13:33:11;6.93;;;2.70;;
84021;SDS011;74108;48.636;9.492;2024-01-27T13:35:37;8.13;;;2.75;;
84021;SDS011;74108;48.636;9.492;2024-01-27T13:38:05;7.55;;;2.50;;
84021;SDS011;74108;48.636;9.492;2024-01-27T13:40:30;7.10;;;2.63;;
84021;SDS011;74108;48.636;9.492;2024-01-27T13:42:56;6.80;;;2.70;;
84021;SDS011;74108;48.636;9.492;2024-01-27T13:45:22;6.18;;;3.17;;
84021;SDS011;74108;48.636;9.492;2024-01-27T13:47:48;6.30;;;2.40;;
84021;SDS011;74108;48.636;9.492;2024-01-27T13:50:13;5.40;;;2.70;;
84021;SDS011;74108;48.636;9.492;2024-01-27T13:52:39;4.97;;;2.30;;
84021;SDS011;74108;48.636;9.492;2024-01-27T13:55:06;4.38;;;2.35;;
84021;SDS011;74108;48.636;9.492;2024-01-27T13:57:31;8.60;;;2.40;;
84021;SDS011;74108;48.636;9.492;2024-01-27T13:59:57;6.32;;;2.50;;
84021;SDS011;74108;48.636;9.492;2024-01-27T14:02:22;9.40;;;2.33;;
84021;SDS011;74108;48.636;9.492;2024-01-27T14:04:50;10.60;;;2.30;;
84021;SDS011;74108;48.636;9.492;2024-01-27T14:07:16;6.32;;;2.63;;
84021;SDS011;74108;48.636;9.492;2024-01-27T14:09:42;8.23;;;2.08;;
84021;SDS011;74108;48.636;9.492;2024-01-27T14:12:09;5.25;;;2.20;;
84021;SDS011;74108;48.636;9.492;2024-01-27T14:14:34;8.15;;;2.45;;
84021;SDS011;74108;48.636;9.492;2024-01-27T14:17:03;5.07;;;2.17;;
84021;SDS011;74108;48.636;9.492;2024-01-27T14:19:29;4.57;;;2.03;;
84021;SDS011;74108;48.636;9.492;2024-01-27T14:21:54;3.92;;;2.00;;
84021;SDS011;74108;48.636;9.492;2024-01-27T14:24:20;5.93;;;1.75;;
84021;SDS011;74108;48.636;9.492;2024-01-27T14:26:46;4.82;;;2.30;;
84021;SDS011;74108;48.636;9.492;2024-01-27T14:29:14;5.93;;;2.30;;
84021;SDS011;74108;48.636;9.492;2024-01-27T14:31:42;4.70;;;2.20;;
84021;SDS011;74108;48.636;9.492;2024-01-27T14:34:07;5.47;;;1.95;;
84021;SDS011;74108;48.636;9.492;2024-01-27T14:36:34;4.85;;;1.90;;
84021;SDS011;74108;48.636;9.492;2024-01-27T14:39:00;5.90;;;2.03;;
84021;SDS011;74108;48.636;9.492;2024-01-27T14:41:26;6.72;;;2.08;;
84021;SDS011;74108;48.636;9.492;2024-01-27T14:43:52;5.78;;;1.80;;
84021;SDS011;74108;48.636;9.492;2024-01-27T14:46:18;6.55;;;1.90;;
84021;SDS011;74108;48.636;9.492;2024-01-27T14:48:44;5.15;;;1.77;;
84021;SDS011;74108;48.636;9.492;2024-01-27T14:51:10;5.95;;;2.00;;
84021;SDS011;74108;48.636;9.492;2024-01-27T14:53:36;4.10;;;2.10;;
84021;SDS011;74108;48.636;9.492;2024-01-27T14:56:01;3.92;;;1.55;;
84021;SDS011;74108;48.636;9.492;2024-01-27T14:58:27;3.00;;;1.70;;
84021;SDS011;74108;48.636;9.492;2024-01-27T15:00:52;3.13;;;1.90;;
84021;SDS011;74108;48.636;9.492;2024-01-27T15:03:18;3.55;;;1.90;;
84021;SDS011;74108;48.636;9.492;2024-01-27T15:05:45;3.65;;;1.60;;
84021;SDS011;74108;48.636;9.492;2024-01-27T15:08:11;4.32;;;1.90;;
84021;SDS011;74108;48.636;9.492;2024-01-27T15:10:37;4.60;;;1.70;;
84021;SDS011;74108;48.636;9.492;2024-01-27T15:13:04;4.70;;;1.80;;
84021;SDS011;74108;48.636;9.492;2024-01-27T15:15:31;5.85;;;1.80;;
84021;SDS011;74108;48.636;9.492;2024-01-27T15:17:56;3.88;;;1.60;;
84021;SDS011;74108;48.636;9.492;2024-01-27T15:20:25;4.70;;;1.45;;
84021;SDS011;74108;48.636;9.492;2024-01-27T15:22:51;9.10;;;2.00;;
84021;SDS011;74108;48.636;9.492;2024-01-27T15:25:17;3.35;;;1.50;;
84021;SDS011;74108;48.636;9.492;2024-01-27T15:27:42;6.00;;;1.75;;